Terminal Aerodrome Forecast
Issued by NWS Nashville, TN

Home | Current Version | Previous Version | Text Only | Print | Product List | Glossary On
Versions: 1 2 3 4 5 6 7 8 9 10 11 12 13 14 15 16 17 18 19 20
310
FTUS44 KOHX 161924 AAA
TAFBNA
TAF AMD
KBNA 161924Z 1619/1718 33010KT P6SM BKN020 OVC100
     FM162000 33008KT P6SM SCT100
     FM170800 33006KT P6SM OVC025
     FM171600 34006KT P6SM SKC=

USA.gov is the U.S. government's official web portal to all federal, state and local government web resources and services.